Time;durP1;ratioP1;P1;durP2;ratioP2;P2;SDS_P1;SDS_P2;PMS_P1;PMS_P2;Temp;Humidity;BMP_temperature;BMP_pressure;BME280_temperature;BME280_humidity;BME280_pressure;Samples;Min_cycle;Max_cycle;Signal;HPM_P1;HPM_P2
2021/01/10 00:00:18;;;;;;;36.08;23.22;;;;;;;-0.09;91.29;100813.73;1702139;82;25928;-81
2021/01/10 00:02:46;;;;;;;33.60;21.55;;;;;;;-0.11;91.25;100808.70;1693717;82;26511;-81
2021/01/10 00:05:30;;;;;;;34.03;20.20;;;;;;;-0.09;91.32;100808.59;1691752;83;25777;-82
2021/01/10 00:07:57;;;;;;;34.88;22.35;;;;;;;-0.04;91.39;100815.12;1696107;82;26514;-82
2021/01/10 00:10:26;;;;;;;33.85;21.37;;;;;;;-0.03;91.27;100814.23;1705559;82;25790;-81
2021/01/10 00:13:03;;;;;;;35.38;22.40;;;;;;;-0.01;91.25;100822.66;1704302;82;25937;-81
2021/01/10 00:15:31;;;;;;;32.08;20.85;;;;;;;-0.02;91.24;100817.63;1690144;83;25750;-83
2021/01/10 00:17:57;;;;;;;33.00;21.85;;;;;;;-0.01;91.24;100827.80;1703765;83;26379;-81
2021/01/10 00:20:24;;;;;;;36.93;24.50;;;;;;;-0.03;91.25;100827.08;1697876;83;25894;-81
2021/01/10 00:22:54;;;;;;;36.05;22.40;;;;;;;0.00;91.24;100829.94;1701011;83;25814;-83
2021/01/10 00:25:23;;;;;;;41.75;25.43;;;;;;;0.02;91.27;100829.38;1705679;82;25916;-82
2021/01/10 00:27:52;;;;;;;38.73;24.67;;;;;;;0.01;91.27;100835.44;1703081;83;26562;-81
2021/01/10 00:30:22;;;;;;;36.30;23.45;;;;;;;0.01;91.27;100836.72;1701729;82;26504;-81
2021/01/10 00:32:54;;;;;;;33.70;20.80;;;;;;;0.02;91.28;100834.52;1697396;82;25547;-81
2021/01/10 00:35:23;;;;;;;33.78;21.73;;;;;;;0.05;91.34;100839.47;1697969;82;25506;-81
2021/01/10 00:37:55;;;;;;;34.27;21.37;;;;;;;0.03;91.33;100841.76;1700734;82;25804;-82
2021/01/10 00:40:25;;;;;;;36.42;21.82;;;;;;;0.01;91.25;100843.61;1700740;82;25860;-81
2021/01/10 00:42:52;;;;;;;34.78;21.27;;;;;;;-0.01;91.32;100843.22;1702516;82;26324;-81
2021/01/10 00:45:20;;;;;;;33.63;23.02;;;;;;;0.02;91.40;100847.36;1699383;82;26242;-81
2021/01/10 00:47:51;;;;;;;39.10;23.52;;;;;;;0.04;91.38;100851.14;1689025;83;25953;-81
2021/01/10 00:50:21;;;;;;;31.27;20.25;;;;;;;0.02;91.34;100851.22;1689132;83;27090;-81
2021/01/10 00:52:47;;;;;;;30.35;19.75;;;;;;;0.03;91.38;100850.32;1707808;82;25539;-81
2021/01/10 00:55:14;;;;;;;37.03;21.73;;;;;;;0.02;91.37;100855.07;1707132;83;25633;-81
2021/01/10 00:57:40;;;;;;;30.70;19.67;;;;;;;0.05;91.38;100856.64;1702597;83;26262;-81
2021/01/10 01:00:13;;;;;;;34.58;21.35;;;;;;;0.05;91.46;100860.03;1702428;82;25839;-81
2021/01/10 01:02:42;;;;;;;33.78;22.35;;;;;;;0.06;91.39;100859.60;1701085;82;26453;-81
2021/01/10 01:05:10;;;;;;;35.25;21.73;;;;;;;0.08;91.42;100862.46;1700928;82;25723;-82
2021/01/10 01:07:37;;;;;;;34.98;22.98;;;;;;;0.08;91.45;100856.47;1696143;82;26441;-81
2021/01/10 01:10:04;;;;;;;32.80;19.82;;;;;;;0.08;91.48;100862.89;1703601;83;25845;-81
2021/01/10 01:12:31;;;;;;;31.93;20.85;;;;;;;0.07;91.50;100862.53;1700561;82;25790;-81
2021/01/10 01:14:57;;;;;;;36.42;22.87;;;;;;;0.08;91.46;100865.03;1701218;83;26341;-81
2021/01/10 01:17:23;;;;;;;28.05;18.35;;;;;;;0.09;91.48;100859.42;1697270;83;25852;-82
2021/01/10 01:19:50;;;;;;;32.85;21.52;;;;;;;0.10;91.58;100859.33;1701902;82;25734;-81
2021/01/10 01:22:19;;;;;;;37.40;22.93;;;;;;;0.11;91.50;100856.30;1707849;82;26423;-82
2021/01/10 01:24:46;;;;;;;33.33;21.87;;;;;;;0.12;91.50;100862.64;1696420;82;25715;-81
2021/01/10 01:27:12;;;;;;;34.88;22.32;;;;;;;0.12;91.48;100865.68;1705241;82;25798;-81
2021/01/10 01:29:38;;;;;;;35.38;22.60;;;;;;;0.10;91.43;100863.18;1678948;83;25852;-81
2021/01/10 01:32:05;;;;;;;34.58;21.70;;;;;;;0.12;91.54;100861.36;1711960;83;25772;-82
2021/01/10 01:34:31;;;;;;;35.85;23.25;;;;;;;0.11;91.50;100861.00;1684981;83;25834;-83
2021/01/10 01:36:58;;;;;;;35.48;22.67;;;;;;;0.11;91.50;100866.57;1720947;82;25662;-81
2021/01/10 01:39:25;;;;;;;36.17;22.37;;;;;;;0.12;91.54;100868.25;1707587;82;25847;-81
2021/01/10 01:41:52;;;;;;;33.35;20.65;;;;;;;0.11;91.55;100870.00;1707416;82;25850;-82
2021/01/10 01:44:18;;;;;;;39.20;24.12;;;;;;;0.14;91.58;100871.57;1705598;83;25787;-81
2021/01/10 01:46:44;;;;;;;33.58;23.10;;;;;;;0.17;91.63;100876.08;1705076;83;25644;-82
2021/01/10 01:49:12;;;;;;;39.10;22.48;;;;;;;0.18;91.61;100876.43;1699634;84;25758;-82
2021/01/10 01:51:42;;;;;;;43.85;22.98;;;;;;;0.21;91.63;100880.11;1691987;82;25790;-82
2021/01/10 01:54:09;;;;;;;35.65;22.62;;;;;;;0.19;91.51;100879.39;1673009;84;25683;-81
2021/01/10 01:56:36;;;;;;;38.58;23.25;;;;;;;0.20;91.57;100889.21;1699287;82;25783;-82
2021/01/10 01:59:09;;;;;;;34.33;21.77;;;;;;;0.20;91.58;100885.36;1701183;83;25802;-82
2021/01/10 02:01:39;;;;;;;36.95;23.80;;;;;;;0.19;91.57;100893.96;1695462;82;25996;-81
2021/01/10 02:04:23;;;;;;;35.05;20.62;;;;;;;0.15;91.54;100888.17;1711548;83;26389;-82
2021/01/10 02:07:20;;;;;;;36.13;22.73;;;;;;;0.16;91.72;100894.13;1715036;82;25758;-82
2021/01/10 02:10:04;;;;;;;39.23;22.77;;;;;;;0.14;91.69;100892.13;1716704;82;26212;-83
2021/01/10 02:12:34;;;;;;;42.70;25.20;;;;;;;0.14;91.75;100894.23;1702756;83;25994;-82
2021/01/10 02:15:12;;;;;;;33.45;18.95;;;;;;;0.12;91.78;100898.63;1680722;83;26325;-82
2021/01/10 02:17:45;;;;;;;40.85;22.67;;;;;;;0.11;91.95;100894.41;1684027;83;25840;-82
2021/01/10 02:20:16;;;;;;;42.13;23.55;;;;;;;0.08;91.94;100897.16;1703103;82;26619;-82
2021/01/10 02:22:47;;;;;;;41.92;23.25;;;;;;;0.12;92.04;100899.09;1673268;83;25889;-82
2021/01/10 02:25:14;;;;;;;38.80;22.85;;;;;;;0.15;92.05;100895.06;1704452;83;26314;-81
2021/01/10 02:27:42;;;;;;;41.98;25.40;;;;;;;0.12;92.07;100894.77;1701354;82;25806;-82
2021/01/10 02:30:11;;;;;;;42.95;24.63;;;;;;;0.12;92.08;100902.94;1704368;82;25788;-81
2021/01/10 02:32:42;;;;;;;39.13;20.72;;;;;;;0.13;92.18;100896.88;1705240;82;25746;-81
2021/01/10 02:35:10;;;;;;;38.23;21.25;;;;;;;0.15;92.33;100900.20;1700048;83;25877;-81
2021/01/10 02:38:17;;;;;;;44.27;24.60;;;;;;;0.12;92.43;100899.91;1672556;83;25759;-81
2021/01/10 02:41:15;;;;;;;42.98;24.77;;;;;;;0.10;92.26;100899.16;1666616;84;26267;-82
2021/01/10 02:44:03;;;;;;;42.88;24.60;;;;;;;0.12;92.36;100902.94;1675568;83;25727;-83
2021/01/10 02:46:33;;;;;;;42.50;23.40;;;;;;;0.13;92.40;100901.55;1664461;83;25824;-82
2021/01/10 02:49:00;;;;;;;54.53;26.63;;;;;;;0.14;92.44;100907.55;1643492;85;25787;-81
2021/01/10 02:51:26;;;;;;;46.35;23.00;;;;;;;0.14;92.49;100907.09;1663736;84;25713;-81
2021/01/10 02:53:53;;;;;;;49.95;25.00;;;;;;;0.15;92.53;100901.02;1668224;84;25766;-82
2021/01/10 02:56:19;;;;;;;45.78;25.88;;;;;;;0.18;92.54;100905.17;1688670;83;26332;-82
2021/01/10 02:58:48;;;;;;;37.10;21.27;;;;;;;0.18;92.54;100908.56;1668036;84;26359;-81
2021/01/10 03:01:16;;;;;;;43.40;21.97;;;;;;;0.15;92.69;100903.59;1675119;83;25766;-81
2021/01/10 03:03:43;;;;;;;44.93;23.92;;;;;;;0.13;92.69;100905.41;1654610;84;25714;-82
2021/01/10 03:06:10;;;;;;;46.98;25.40;;;;;;;0.13;92.64;100900.27;1658825;84;25927;-81
2021/01/10 03:08:38;;;;;;;43.95;24.63;;;;;;;0.15;92.67;100901.48;1656025;84;26668;-81
2021/01/10 03:11:05;;;;;;;47.15;25.52;;;;;;;0.17;92.65;100904.34;1656471;85;25870;-81
2021/01/10 03:13:36;;;;;;;44.58;23.62;;;;;;;0.19;92.73;100903.81;1663027;84;25486;-83
2021/01/10 03:16:03;;;;;;;43.13;21.85;;;;;;;0.16;92.74;100897.56;1666347;84;25854;-81
2021/01/10 03:18:30;;;;;;;47.62;26.85;;;;;;;0.17;92.88;100898.38;1662738;84;26315;-81
2021/01/10 03:20:57;;;;;;;42.53;22.95;;;;;;;0.16;92.79;100896.27;1684517;83;25827;-82
2021/01/10 03:23:23;;;;;;;45.12;25.10;;;;;;;0.17;92.79;100904.80;1679411;83;26285;-82
2021/01/10 03:25:50;;;;;;;51.55;27.07;;;;;;;0.17;92.81;100903.52;1684074;83;26675;-81
2021/01/10 03:28:16;;;;;;;44.73;24.15;;;;;;;0.16;92.78;100891.13;1663544;84;25744;-83
2021/01/10 03:30:43;;;;;;;45.45;24.60;;;;;;;0.18;92.89;100897.45;1663762;84;25676;-82
2021/01/10 03:33:09;;;;;;;41.58;22.22;;;;;;;0.18;92.81;100891.85;1687840;83;26086;-82
2021/01/10 03:35:36;;;;;;;44.05;22.90;;;;;;;0.21;92.88;100893.42;1686031;84;26472;-82
2021/01/10 03:38:04;;;;;;;42.67;22.67;;;;;;;0.23;92.79;100890.32;1670888;83;25770;-83
2021/01/10 03:40:31;;;;;;;48.73;25.50;;;;;;;0.23;92.78;100890.32;1688452;83;25528;-82
2021/01/10 03:42:57;;;;;;;39.45;22.45;;;;;;;0.24;92.72;100895.83;1680044;83;25767;-81
2021/01/10 03:45:24;;;;;;;44.08;23.77;;;;;;;0.25;92.75;100894.93;1684936;84;26359;-82
2021/01/10 03:47:50;;;;;;;42.60;22.20;;;;;;;0.28;92.73;100900.36;1677595;83;25888;-82
2021/01/10 03:50:17;;;;;;;41.88;23.00;;;;;;;0.26;92.77;100899.14;1671987;84;26266;-83
2021/01/10 03:52:43;;;;;;;44.33;23.60;;;;;;;0.28;92.80;100904.21;1676003;83;25775;-81
2021/01/10 03:55:11;;;;;;;48.85;27.48;;;;;;;0.26;92.81;100899.14;1675143;83;26378;-81
2021/01/10 03:57:38;;;;;;;40.65;22.02;;;;;;;0.26;92.76;100903.46;1658167;84;25600;-82
2021/01/10 04:00:11;;;;;;;45.83;24.90;;;;;;;0.28;92.82;100902.92;1660982;84;25754;-83
2021/01/10 04:02:38;;;;;;;40.88;20.35;;;;;;;0.29;92.77;100900.72;1663389;84;25760;-81
2021/01/10 04:05:07;;;;;;;43.90;23.77;;;;;;;0.32;92.89;100903.11;1656459;84;25701;-82
2021/01/10 04:07:33;;;;;;;43.38;22.90;;;;;;;0.29;92.71;100909.25;1641678;84;26320;-82
2021/01/10 04:10:00;;;;;;;46.90;24.87;;;;;;;0.31;92.76;100911.29;1659620;84;26232;-82
2021/01/10 04:12:26;;;;;;;40.92;22.65;;;;;;;0.32;92.77;100910.36;1663427;84;25735;-81
2021/01/10 04:14:56;;;;;;;39.50;22.25;;;;;;;0.34;92.79;100908.55;1660390;84;25809;-81
2021/01/10 04:17:25;;;;;;;38.80;19.87;;;;;;;0.37;92.79;100907.55;1681933;83;25781;-83
2021/01/10 04:19:54;;;;;;;35.68;20.10;;;;;;;0.41;92.83;100911.62;1676332;84;25729;-82
2021/01/10 04:22:22;;;;;;;41.77;21.70;;;;;;;0.41;92.78;100915.01;1672784;84;25646;-81
2021/01/10 04:24:48;;;;;;;44.20;24.20;;;;;;;0.39;92.69;100910.41;1666475;84;26347;-82
2021/01/10 04:27:15;;;;;;;45.78;23.18;;;;;;;0.39;92.63;100916.01;1670798;84;25798;-81
2021/01/10 04:29:41;;;;;;;48.87;24.95;;;;;;;0.38;92.64;100911.33;1667636;84;25776;-82
2021/01/10 04:32:08;;;;;;;43.28;22.80;;;;;;;0.38;92.68;100921.61;1658598;84;25796;-81
2021/01/10 04:34:35;;;;;;;49.23;25.08;;;;;;;0.37;92.69;100917.83;1668784;84;25795;-82
2021/01/10 04:37:01;;;;;;;35.75;18.95;;;;;;;0.38;92.77;100919.47;1681360;82;25762;-83
2021/01/10 04:39:28;;;;;;;46.23;23.70;;;;;;;0.34;92.83;100914.97;1687717;82;26455;-81
2021/01/10 04:41:56;;;;;;;39.55;23.32;;;;;;;0.34;92.72;100917.54;1698859;82;26411;-82
2021/01/10 04:44:23;;;;;;;46.13;23.83;;;;;;;0.36;92.76;100920.86;1705679;83;25699;-83
2021/01/10 04:46:51;;;;;;;45.48;24.12;;;;;;;0.41;92.89;100920.62;1677125;82;25753;-81
2021/01/10 04:49:21;;;;;;;49.25;25.25;;;;;;;0.43;92.77;100922.16;1704282;83;25868;-83
2021/01/10 04:51:49;;;;;;;46.02;25.92;;;;;;;0.44;92.76;100919.16;1705672;82;25745;-82
2021/01/10 04:54:16;;;;;;;46.68;25.48;;;;;;;0.43;92.74;100922.63;1687881;82;25716;-81
2021/01/10 04:56:44;;;;;;;46.45;23.42;;;;;;;0.44;92.84;100921.73;1704404;82;25732;-82
2021/01/10 04:59:11;;;;;;;41.70;22.02;;;;;;;0.43;92.71;100926.02;1702775;82;25749;-82
2021/01/10 05:01:45;;;;;;;49.18;25.80;;;;;;;0.47;92.80;100928.44;1703771;82;25761;-81
2021/01/10 05:04:16;;;;;;;44.03;23.38;;;;;;;0.44;92.71;100925.13;1695163;83;25759;-81
2021/01/10 05:06:44;;;;;;;44.98;23.38;;;;;;;0.48;92.73;100927.52;1695585;82;25879;-81
2021/01/10 05:09:13;;;;;;;49.67;23.55;;;;;;;0.49;92.72;100936.45;1699918;83;25759;-82
2021/01/10 05:11:40;;;;;;;42.95;23.27;;;;;;;0.51;92.70;100933.77;1687119;83;25827;-81
2021/01/10 05:14:06;;;;;;;48.75;23.15;;;;;;;0.48;92.65;100936.05;1706694;83;26545;-81
2021/01/10 05:16:35;;;;;;;51.77;26.12;;;;;;;0.44;92.61;100926.88;1698465;82;26315;-81
2021/01/10 05:19:02;;;;;;;50.50;25.70;;;;;;;0.44;92.70;100933.30;1693423;82;25919;-83
2021/01/10 05:21:30;;;;;;;45.15;23.57;;;;;;;0.44;92.71;100934.12;1693452;82;25317;-81
2021/01/10 05:23:59;;;;;;;46.42;25.32;;;;;;;0.47;92.80;100934.41;1692869;82;25713;-81
2021/01/10 05:26:34;;;;;;;46.80;23.60;;;;;;;0.46;92.80;100936.59;1696327;82;26533;-81
2021/01/10 05:29:11;;;;;;;37.50;20.30;;;;;;;0.45;92.74;100933.66;1708192;82;25715;-81
2021/01/10 05:31:41;;;;;;;42.93;23.40;;;;;;;0.43;92.88;100939.34;1703236;81;26002;-81
2021/01/10 05:34:16;;;;;;;45.45;23.73;;;;;;;0.39;92.80;100936.11;1690181;82;25727;-81
2021/01/10 05:36:43;;;;;;;53.02;26.15;;;;;;;0.41;92.86;100936.05;1690417;83;25817;-81
2021/01/10 05:39:27;;;;;;;36.77;19.37;;;;;;;0.42;92.88;100938.97;1664049;84;25737;-81
2021/01/10 05:42:04;;;;;;;42.73;24.50;;;;;;;0.44;92.97;100938.44;1670735;84;25784;-81
2021/01/10 05:44:42;;;;;;;45.10;23.25;;;;;;;0.43;92.89;100945.30;1668491;84;25892;-81
2021/01/10 05:47:19;;;;;;;46.23;24.45;;;;;;;0.44;92.93;100947.44;1596191;87;26383;-81
2021/01/10 05:49:54;;;;;;;45.33;24.80;;;;;;;0.45;92.99;100947.80;1595405;87;25852;-81
2021/01/10 05:52:22;;;;;;;46.70;25.52;;;;;;;0.50;93.00;100944.98;1598059;88;26584;-81
2021/01/10 05:54:53;;;;;;;42.88;22.70;;;;;;;0.49;92.93;100954.45;1593193;89;25762;-81
2021/01/10 05:57:28;;;;;;;47.45;24.52;;;;;;;0.45;92.86;100956.80;1596740;88;26529;-82
2021/01/10 05:59:56;;;;;;;38.38;19.42;;;;;;;0.41;92.89;100958.72;1595166;88;25940;-81
2021/01/10 06:02:37;;;;;;;48.10;26.12;;;;;;;0.43;92.97;100963.77;1594624;88;25792;-81
2021/01/10 06:05:16;;;;;;;46.98;23.87;;;;;;;0.43;93.00;100968.91;1588051;89;26324;-81
2021/01/10 06:07:45;;;;;;;45.60;22.55;;;;;;;0.43;93.07;100963.30;1597918;87;25933;-81
2021/01/10 06:10:15;;;;;;;48.40;24.32;;;;;;;0.49;93.09;100966.45;1595730;88;26053;-81
2021/01/10 06:12:42;;;;;;;47.13;23.98;;;;;;;0.48;93.06;100969.48;1596152;88;25405;-82
2021/01/10 06:15:18;;;;;;;39.08;22.45;;;;;;;0.47;93.03;100972.16;1594732;88;25931;-81
2021/01/10 06:17:48;;;;;;;51.13;25.37;;;;;;;0.42;93.11;100975.80;1597991;88;25874;-81
2021/01/10 06:20:30;;;;;;;47.58;22.67;;;;;;;0.38;93.16;100972.18;1598364;88;25880;-81
2021/01/10 06:23:02;;;;;;;50.52;25.60;;;;;;;0.38;93.27;100979.47;1594737;88;25820;-81
2021/01/10 06:25:31;;;;;;;54.50;26.55;;;;;;;0.41;93.28;100984.89;1656375;84;25340;-81
2021/01/10 06:28:13;;;;;;;52.08;27.17;;;;;;;0.43;93.28;100985.16;1670720;84;25763;-81
2021/01/10 06:30:59;;;;;;;44.73;21.37;;;;;;;0.47;93.28;100985.02;1672122;84;25775;-81
2021/01/10 06:33:31;;;;;;;48.42;24.25;;;;;;;0.48;93.31;100987.48;1670459;83;25908;-81
2021/01/10 06:36:07;;;;;;;43.17;23.62;;;;;;;0.50;93.27;100987.41;1658478;84;25769;-82
2021/01/10 06:38:37;;;;;;;43.42;23.15;;;;;;;0.51;93.19;100992.45;1669435;84;25779;-81
2021/01/10 06:41:44;;;;;;;46.92;24.67;;;;;;;0.53;93.15;100989.81;1673283;84;26513;-81
2021/01/10 06:44:11;;;;;;;40.20;21.00;;;;;;;0.54;93.13;100997.42;1665787;84;25865;-82
2021/01/10 06:46:40;;;;;;;45.08;23.10;;;;;;;0.57;93.12;100999.85;1646410;85;25848;-81
2021/01/10 06:49:06;;;;;;;48.85;21.17;;;;;;;0.56;93.04;101005.07;1673677;84;25838;-81
2021/01/10 06:51:39;;;;;;;44.77;21.27;;;;;;;0.59;93.16;101008.29;1671019;85;25658;-82
2021/01/10 06:54:06;;;;;;;49.27;24.15;;;;;;;0.59;93.05;100999.29;1671566;84;26495;-82
2021/01/10 06:56:37;;;;;;;47.30;23.95;;;;;;;0.59;93.04;101006.19;1665417;85;25731;-81
2021/01/10 06:59:25;;;;;;;47.83;24.45;;;;;;;0.61;93.04;101001.79;1668051;84;25908;-83
2021/01/10 07:01:59;;;;;;;44.55;23.60;;;;;;;0.63;93.00;101012.37;1665576;84;25793;-82
2021/01/10 07:04:43;;;;;;;47.45;24.27;;;;;;;0.62;92.96;101007.30;1664097;84;25820;-81
2021/01/10 07:07:10;;;;;;;42.65;21.60;;;;;;;0.59;92.90;101013.90;1668103;85;26833;-81
2021/01/10 07:09:55;;;;;;;41.42;21.82;;;;;;;0.56;92.85;101005.07;1667958;84;25754;-82
2021/01/10 07:12:22;;;;;;;48.35;23.73;;;;;;;0.57;92.87;101013.14;1668453;85;25796;-81
2021/01/10 07:14:49;;;;;;;40.33;22.85;;;;;;;0.57;92.89;101015.72;1668595;84;26317;-82
2021/01/10 07:17:20;;;;;;;41.10;21.50;;;;;;;0.58;92.90;101017.39;1677842;84;25721;-81
2021/01/10 07:19:48;;;;;;;43.58;24.30;;;;;;;0.60;92.94;101015.55;1674288;83;25833;-81
2021/01/10 07:22:30;;;;;;;47.03;24.10;;;;;;;0.61;92.90;101014.19;1671501;84;25786;-81
2021/01/10 07:25:33;;;;;;;47.70;23.27;;;;;;;0.62;92.86;101016.30;1656738;84;26379;-81
2021/01/10 07:28:21;;;;;;;41.68;22.65;;;;;;;0.65;92.93;101022.12;1676383;84;25903;-81
2021/01/10 07:30:48;;;;;;;41.60;22.85;;;;;;;0.71;92.91;101025.24;1673351;84;26096;-82
2021/01/10 07:33:24;;;;;;;41.28;21.57;;;;;;;0.72;92.86;101029.03;1672701;84;25894;-81
2021/01/10 07:35:59;;;;;;;43.80;23.40;;;;;;;0.73;92.78;101022.95;1647703;84;25798;-82
2021/01/10 07:38:33;;;;;;;39.95;21.17;;;;;;;0.73;92.74;101022.14;1700018;82;26413;-81
2021/01/10 07:41:24;;;;;;;41.23;20.90;;;;;;;0.74;92.74;101031.53;1702434;82;26446;-81
2021/01/10 07:43:57;;;;;;;39.55;19.60;;;;;;;0.71;92.68;101035.10;1711158;82;25970;-82
2021/01/10 07:46:57;;;;;;;51.55;24.05;;;;;;;0.68;92.61;101033.13;1702335;82;26330;-81
2021/01/10 07:49:32;;;;;;;44.85;23.87;;;;;;;0.68;92.76;101030.09;1703912;82;25889;-81
2021/01/10 07:51:59;;;;;;;38.40;20.40;;;;;;;0.70;92.74;101036.00;1700185;82;25537;-82
2021/01/10 07:54:55;;;;;;;42.90;21.97;;;;;;;0.70;92.73;101037.75;1706630;82;25497;-81
2021/01/10 07:57:28;;;;;;;48.48;23.92;;;;;;;0.67;92.63;101047.74;1701430;82;25840;-82
2021/01/10 08:00:21;;;;;;;43.98;23.10;;;;;;;0.70;92.81;101050.14;1699046;82;25807;-81
2021/01/10 08:02:55;;;;;;;44.45;22.40;;;;;;;0.73;92.82;101055.12;1701254;82;25734;-81
2021/01/10 08:05:38;;;;;;;46.33;23.45;;;;;;;0.79;92.82;101059.09;1705794;82;25887;-81
2021/01/10 08:08:16;;;;;;;52.90;27.87;;;;;;;0.81;92.72;101064.53;1697864;82;25700;-82
2021/01/10 08:10:50;;;;;;;45.78;25.50;;;;;;;0.83;92.66;101069.60;1701463;82;25934;-83
2021/01/10 08:13:44;;;;;;;55.65;28.67;;;;;;;0.86;92.69;101072.83;1698491;82;25764;-83
2021/01/10 08:16:32;;;;;;;53.80;25.20;;;;;;;0.86;92.58;101074.11;1702581;82;25798;-81
2021/01/10 08:19:05;;;;;;;50.83;25.45;;;;;;;0.89;92.56;101075.69;1698790;83;25789;-81
2021/01/10 08:21:31;;;;;;;56.18;28.95;;;;;;;0.92;92.64;101072.94;1703476;82;25836;-84
2021/01/10 08:23:58;;;;;;;53.33;26.85;;;;;;;0.92;92.40;101081.95;1700853;82;26304;-81
2021/01/10 08:26:25;;;;;;;55.78;28.87;;;;;;;0.94;92.40;101085.73;1700654;82;25893;-81
2021/01/10 08:28:56;;;;;;;55.05;28.12;;;;;;;0.91;92.35;101086.73;1704169;82;26226;-84
2021/01/10 08:31:26;;;;;;;52.43;27.73;;;;;;;0.90;92.34;101088.95;1707024;82;25854;-83
2021/01/10 08:34:08;;;;;;;54.77;29.07;;;;;;;0.86;92.29;101086.16;1697907;82;25848;-83
2021/01/10 08:36:36;;;;;;;57.53;28.10;;;;;;;0.87;92.51;101090.38;1701796;82;26454;-83
2021/01/10 08:39:09;;;;;;;48.08;25.95;;;;;;;0.91;92.50;101088.02;1702130;82;26384;-83
2021/01/10 08:41:42;;;;;;;57.05;28.35;;;;;;;0.94;92.59;101093.45;1714278;82;25894;-83
2021/01/10 08:44:18;;;;;;;54.30;29.27;;;;;;;0.92;92.40;101094.81;1717160;82;25603;-82
2021/01/10 08:46:51;;;;;;;53.15;27.42;;;;;;;0.92;92.45;101088.84;1718903;82;25805;-83
2021/01/10 08:49:26;;;;;;;55.60;28.57;;;;;;;0.91;92.36;101091.06;1717129;82;25299;-83
2021/01/10 08:51:53;;;;;;;47.62;26.62;;;;;;;0.87;92.41;101091.66;1716066;82;25722;-83
2021/01/10 08:54:23;;;;;;;55.35;28.05;;;;;;;0.83;92.37;101098.73;1715083;82;25741;-83
2021/01/10 08:56:55;;;;;;;53.98;29.02;;;;;;;0.77;92.41;101090.53;1718767;82;25838;-83
2021/01/10 08:59:22;;;;;;;50.38;26.42;;;;;;;0.76;92.52;101097.39;1715415;82;25903;-82
2021/01/10 09:01:50;;;;;;;56.02;30.50;;;;;;;0.74;92.56;101094.56;1710929;82;25853;-83
2021/01/10 09:04:17;;;;;;;53.55;27.00;;;;;;;0.70;92.60;101095.16;1689991;83;26497;-83
2021/01/10 09:07:14;;;;;;;51.98;25.02;;;;;;;0.72;92.67;101099.78;1690069;82;25836;-83
2021/01/10 09:10:03;;;;;;;54.48;28.80;;;;;;;0.73;92.77;101094.99;1704048;82;25958;-82
2021/01/10 09:12:37;;;;;;;48.58;26.50;;;;;;;0.76;92.80;101099.14;1685943;82;25703;-82
2021/01/10 09:15:21;;;;;;;54.20;29.60;;;;;;;0.80;92.86;101100.19;1695977;82;25726;-83
2021/01/10 09:17:59;;;;;;;49.38;24.67;;;;;;;0.81;92.77;101104.41;1706930;82;26386;-83
2021/01/10 09:20:29;;;;;;;53.40;30.40;;;;;;;0.83;92.78;101108.20;1711602;82;25743;-83
2021/01/10 09:23:08;;;;;;;50.75;28.25;;;;;;;0.78;92.66;101108.44;1708707;82;25869;-84
2021/01/10 09:25:35;;;;;;;60.20;28.12;;;;;;;0.79;92.69;101112.69;1724471;82;25769;-83
2021/01/10 09:28:19;;;;;;;52.88;27.85;;;;;;;0.81;92.80;101118.56;1713717;82;25894;-83
2021/01/10 09:30:53;;;;;;;50.60;28.90;;;;;;;0.86;92.86;101114.00;1681279;83;25790;-84
2021/01/10 09:33:29;;;;;;;53.42;29.20;;;;;;;0.87;92.72;101118.68;1708273;82;26493;-83
2021/01/10 09:35:58;;;;;;;47.45;27.13;;;;;;;0.84;92.61;101113.24;1715694;82;25785;-84
2021/01/10 09:38:29;;;;;;;48.35;26.40;;;;;;;0.83;92.56;101117.20;1714338;82;25786;-84
2021/01/10 09:41:14;;;;;;;48.33;27.35;;;;;;;0.82;92.56;101120.70;1703252;82;25742;-83
2021/01/10 09:43:49;;;;;;;53.20;28.17;;;;;;;0.83;92.67;101114.63;1706432;82;26344;-83
2021/01/10 09:46:37;;;;;;;51.05;26.82;;;;;;;0.86;92.66;101111.42;1704140;82;25802;-82
2021/01/10 09:49:25;;;;;;;58.83;27.87;;;;;;;0.85;92.58;101108.95;1692430;83;25819;-82
2021/01/10 09:51:59;;;;;;;54.67;30.68;;;;;;;0.78;92.41;101110.19;1681707;83;25893;-82
2021/01/10 09:54:29;;;;;;;52.73;29.00;;;;;;;0.76;92.55;101105.58;1693081;83;25708;-81
2021/01/10 09:57:00;;;;;;;53.52;29.80;;;;;;;0.80;92.73;101100.66;1691393;83;26210;-81
2021/01/10 09:59:41;;;;;;;46.53;25.90;;;;;;;0.86;92.81;101104.99;1677822;83;26379;-80
2021/01/10 10:02:18;;;;;;;50.08;28.17;;;;;;;0.86;92.65;101102.42;1703014;82;25962;-83
2021/01/10 10:04:47;;;;;;;47.25;27.40;;;;;;;0.86;92.62;101106.74;1702068;82;25277;-81
2021/01/10 10:07:35;;;;;;;47.73;25.90;;;;;;;0.91;92.75;101103.92;1702005;82;25825;-81
2021/01/10 10:10:06;;;;;;;46.45;24.65;;;;;;;0.97;92.84;101108.27;1703300;82;25729;-82
2021/01/10 10:12:33;;;;;;;49.30;26.97;;;;;;;0.94;92.68;101111.01;1703080;82;26287;-82
2021/01/10 10:15:08;;;;;;;45.60;26.23;;;;;;;0.91;92.55;101106.03;1705491;82;25714;-82
2021/01/10 10:17:38;;;;;;;53.13;28.80;;;;;;;0.87;92.58;101104.09;1704536;82;25834;-82
2021/01/10 10:20:07;;;;;;;57.05;29.85;;;;;;;0.87;92.67;101107.95;1703289;82;25758;-82
2021/01/10 10:22:36;;;;;;;55.85;30.25;;;;;;;0.88;92.71;101102.34;1702769;82;25730;-81
2021/01/10 10:25:12;;;;;;;61.70;32.73;;;;;;;0.84;92.52;101104.70;1703771;82;26393;-83
2021/01/10 10:27:54;;;;;;;60.10;31.52;;;;;;;0.82;92.67;101100.12;1701436;82;26417;-80
2021/01/10 10:30:21;;;;;;;57.15;32.28;;;;;;;0.82;92.65;101105.27;1697993;82;25434;-81
2021/01/10 10:32:48;;;;;;;63.17;33.25;;;;;;;0.82;92.71;101106.09;1701221;82;26085;-83
2021/01/10 10:35:18;;;;;;;64.42;31.30;;;;;;;0.81;92.75;101103.12;1702879;82;25852;-82
2021/01/10 10:37:44;;;;;;;67.05;33.23;;;;;;;0.80;92.74;101098.91;1677387;82;26346;-82
2021/01/10 10:40:12;;;;;;;57.75;31.73;;;;;;;0.84;92.88;101097.80;1687589;83;25875;-81
2021/01/10 10:42:41;;;;;;;;;;;;;;;0.89;93.00;101094.52;1715551;82;26038;-82
2021/01/10 10:45:08;;;;;;;57.43;29.70;;;;;;;0.95;92.94;101106.22;1713923;82;25749;-81
2021/01/10 10:47:35;;;;;;;58.30;30.62;;;;;;;0.89;92.75;101099.67;1694174;83;25727;-81
2021/01/10 10:50:04;;;;;;;59.03;31.62;;;;;;;0.85;92.69;101096.91;1712267;82;25903;-82
2021/01/10 10:52:30;;;;;;;49.93;27.27;;;;;;;0.82;92.65;101102.23;1706495;82;26291;-82
2021/01/10 10:54:57;;;;;;;53.75;29.18;;;;;;;0.77;92.64;101093.11;1706052;82;25818;-81
2021/01/10 10:57:24;;;;;;;59.73;29.20;;;;;;;0.74;92.73;101098.42;1712710;82;25768;-82
2021/01/10 10:59:50;;;;;;;53.90;27.55;;;;;;;0.71;92.73;101101.13;1726180;81;25736;-81
2021/01/10 11:02:17;;;;;;;55.92;31.33;;;;;;;0.74;92.97;101098.42;1707048;82;26346;-83
2021/01/10 11:04:46;;;;;;;57.90;29.67;;;;;;;0.74;92.99;101097.13;1705391;82;25839;-81
2021/01/10 11:07:14;;;;;;;59.00;31.07;;;;;;;0.77;93.04;101091.82;1705643;82;25838;-80
2021/01/10 11:09:42;;;;;;;63.23;30.77;;;;;;;0.73;92.90;101088.56;1711628;82;25856;-83
2021/01/10 11:12:12;;;;;;;60.83;31.55;;;;;;;0.74;92.95;101088.13;1714220;82;25773;-80
2021/01/10 11:14:39;;;;;;;59.33;28.98;;;;;;;0.75;93.05;101089.78;1712983;82;25870;-81
2021/01/10 11:17:07;;;;;;;44.58;21.30;;;;;;;0.73;93.05;101091.13;1711160;82;26007;-81
2021/01/10 11:19:34;;;;;;;53.40;27.32;;;;;;;0.69;93.01;101090.12;1703932;82;25771;-81
2021/01/10 11:22:03;;;;;;;55.52;26.93;;;;;;;0.63;92.99;101085.67;1706090;82;25790;-81
2021/01/10 11:24:30;;;;;;;63.28;32.17;;;;;;;0.63;93.08;101090.00;1680378;82;26372;-81
2021/01/10 11:26:57;;;;;;;53.20;26.65;;;;;;;0.62;93.21;101095.58;1702875;82;26771;-80
2021/01/10 11:29:25;;;;;;;61.77;28.67;;;;;;;0.62;93.25;101098.14;1695208;82;25909;-81
2021/01/10 11:31:52;;;;;;;58.13;26.93;;;;;;;0.61;93.26;101090.06;1713933;82;25826;-81
2021/01/10 11:34:20;;;;;;;60.30;31.97;;;;;;;0.61;93.29;101099.06;1686458;82;26751;-82
2021/01/10 11:36:50;;;;;;;51.45;27.13;;;;;;;0.61;93.33;101091.81;1714498;82;26491;-84